Time;durP1;ratioP1;P1;durP2;ratioP2;P2;SDS_P1;SDS_P2;PMS_P1;PMS_P2;Temp;Humidity;BMP_temperature;BMP_pressure;BME280_temperature;BME280_humidity;BME280_pressure;Samples;Min_cycle;Max_cycle;Signal;HPM_P1;HPM_P2
2021/12/08 00:01:18;;;;;;;15.13;1.40;;;;;;;11.01;82.59;100428.44;4926903;29;20083;-68
2021/12/08 00:03:45;;;;;;;3.70;1.40;;;;;;;11.03;82.51;100409.41;4931452;29;20080;-68
2021/12/08 00:06:12;;;;;;;8.37;1.43;;;;;;;11.03;82.58;100416.97;4929343;29;20111;-72
2021/12/08 00:08:45;;;;;;;9.47;1.70;;;;;;;11.09;82.70;100407.44;4933884;29;20134;-72
2021/12/08 00:13:58;;;;;;;8.90;2.00;;;;;;;11.18;82.43;100416.03;4921524;29;20134;-65
2021/12/08 00:16:25;;;;;;;7.23;1.47;;;;;;;11.22;82.61;100414.38;4930425;29;20071;-66
2021/12/08 00:18:57;;;;;;;8.43;1.57;;;;;;;11.32;82.52;100412.34;4933759;29;20059;-71
2021/12/08 00:21:26;;;;;;;3.60;1.73;;;;;;;11.42;82.50;100417.03;4932424;29;20103;-70
2021/12/08 00:23:54;;;;;;;13.77;2.63;;;;;;;11.42;82.57;100417.03;4933886;29;20147;-70
2021/12/08 00:26:21;;;;;;;12.40;3.03;;;;;;;11.46;82.58;100418.13;4924065;29;20388;-71
2021/12/08 00:28:48;;;;;;;14.47;2.53;;;;;;;11.52;82.67;100419.78;4934365;29;20440;-77
2021/12/08 00:31:15;;;;;;;19.93;2.33;;;;;;;11.57;82.75;100425.31;4933378;29;20136;-79
2021/12/08 00:33:42;;;;;;;13.43;2.20;;;;;;;11.59;82.64;100414.69;4933069;29;20052;-77
2021/12/08 00:36:14;;;;;;;16.77;2.37;;;;;;;11.61;82.47;100420.81;4930498;29;20134;-78
2021/12/08 00:38:42;;;;;;;16.33;2.70;;;;;;;11.62;82.49;100422.50;4933343;29;20063;-79
2021/12/08 00:41:11;;;;;;;8.87;1.53;;;;;;;11.57;82.84;100424.47;4931010;29;20114;-72
2021/12/08 00:43:38;;;;;;;7.73;1.23;;;;;;;11.47;82.76;100410.56;4932205;29;20126;-71
2021/12/08 00:46:05;;;;;;;11.53;1.70;;;;;;;11.42;82.85;100405.84;4929880;29;20468;-67
2021/12/08 00:48:32;;;;;;;11.30;1.07;;;;;;;11.45;82.55;100419.22;4930667;29;20181;-73
2021/12/08 00:50:59;;;;;;;3.27;0.73;;;;;;;11.38;82.30;100418.72;4930422;29;20130;-75
2021/12/08 00:53:26;;;;;;;1.50;0.67;;;;;;;11.37;82.27;100425.44;4938490;29;20135;-68
2021/12/08 00:55:56;;;;;;;0.20;0.20;;;;;;;11.39;82.57;100438.03;4929929;29;20122;-69
2021/12/08 00:58:22;;;;;;;6.97;1.53;;;;;;;11.24;82.27;100443.69;4931583;29;20584;-74
2021/12/08 01:00:52;;;;;;;5.53;2.03;;;;;;;11.07;82.68;100444.03;4932627;29;20467;-69
2021/12/08 01:03:20;;;;;;;9.30;1.92;;;;;;;10.84;82.66;100444.72;4933709;29;20062;-76
2021/12/08 01:05:51;;;;;;;2.43;0.67;;;;;;;10.67;82.75;100428.31;4934590;29;20056;-74
2021/12/08 01:08:21;;;;;;;2.80;0.80;;;;;;;10.59;82.62;100428.88;4941570;29;20087;-69
2021/12/08 01:10:51;;;;;;;7.13;1.40;;;;;;;10.31;82.34;100435.91;4936763;29;20072;-70
2021/12/08 01:13:19;;;;;;;5.38;1.30;;;;;;;10.14;82.43;100428.66;4933211;29;20087;-79
2021/12/08 01:15:50;;;;;;;5.10;1.10;;;;;;;10.05;82.43;100421.97;4922487;29;20134;-75
2021/12/08 01:18:18;;;;;;;8.80;1.43;;;;;;;9.97;82.58;100419.72;4921379;29;20056;-72
2021/12/08 01:20:47;;;;;;;1.83;0.87;;;;;;;9.86;82.60;100424.50;4925074;29;20486;-71
2021/12/08 01:23:16;;;;;;;3.60;1.13;;;;;;;9.84;82.63;100429.50;4931174;29;20062;-71
2021/12/08 01:25:43;;;;;;;14.50;1.53;;;;;;;9.85;82.41;100419.19;4934008;29;20130;-72
2021/12/08 01:28:11;;;;;;;13.27;1.50;;;;;;;9.90;82.84;100421.97;4932415;29;20134;-73
2021/12/08 01:30:38;;;;;;;12.30;1.63;;;;;;;9.88;83.03;100426.97;4928457;29;20052;-82
2021/12/08 01:33:05;;;;;;;3.90;1.30;;;;;;;9.93;82.99;100432.56;4929765;29;20142;-82
2021/12/08 01:35:34;;;;;;;15.50;2.03;;;;;;;9.78;83.23;100393.50;4932926;29;20488;-74
2021/12/08 01:38:01;;;;;;;12.60;2.03;;;;;;;10.02;83.00;100422.53;4933750;29;20054;-70
2021/12/08 01:40:28;;;;;;;7.53;3.57;;;;;;;10.09;83.27;100417.50;4927243;29;20131;-69
2021/12/08 01:42:58;;;;;;;18.10;3.23;;;;;;;10.10;83.09;100402.44;4934781;29;20122;-70
2021/12/08 01:48:17;;;;;;;8.00;2.55;;;;;;;10.36;82.82;100424.75;4929056;29;20333;-71
2021/12/08 01:50:48;;;;;;;11.20;1.90;;;;;;;10.33;82.94;100423.38;4927004;29;20082;-69
2021/12/08 01:53:16;;;;;;;18.57;2.60;;;;;;;10.32;82.92;100415.25;4930368;29;20094;-68
2021/12/08 01:55:43;;;;;;;7.83;2.10;;;;;;;10.40;83.01;100431.44;4929780;29;20071;-69
2021/12/08 01:58:11;;;;;;;22.93;2.67;;;;;;;10.48;83.04;100449.56;4929568;29;21181;-70
2021/12/08 02:00:48;;;;;;;26.03;2.77;;;;;;;10.52;83.48;100448.72;4929950;29;20083;-70
2021/12/08 02:03:16;;;;;;;1.80;1.17;;;;;;;10.65;83.40;100397.03;4931864;29;20466;-71
2021/12/08 02:05:43;;;;;;;8.50;3.17;;;;;;;10.70;83.43;100432.47;4931376;29;20135;-63
2021/12/08 02:08:10;;;;;;;13.30;2.07;;;;;;;10.58;83.21;100436.41;4930452;29;20134;-63
2021/12/08 02:10:38;;;;;;;6.90;1.43;;;;;;;10.66;83.07;100433.03;4929999;29;20079;-64
2021/12/08 02:13:06;;;;;;;18.27;1.80;;;;;;;10.63;82.90;100422.44;4929906;29;20079;-63
2021/12/08 02:15:34;;;;;;;10.73;1.67;;;;;;;10.65;83.15;100420.19;4931518;29;20047;-65
2021/12/08 02:18:03;;;;;;;4.63;1.53;;;;;;;10.66;82.95;100419.06;4931732;29;20123;-65
2021/12/08 02:20:30;;;;;;;11.57;1.93;;;;;;;10.60;82.69;100431.41;4924915;29;20550;-65
2021/12/08 02:22:57;;;;;;;3.80;1.73;;;;;;;10.53;82.51;100439.25;4928075;29;20083;-68
2021/12/08 02:25:27;;;;;;;11.13;2.47;;;;;;;10.44;82.58;100443.72;4933948;29;20395;-68
2021/12/08 02:27:57;;;;;;;18.60;1.35;;;;;;;10.20;82.68;100413.56;4929777;29;20082;-68
2021/12/08 02:47:30;;;;;;;5.07;1.77;;;;;;;10.07;82.82;100463.53;4929401;29;20166;-79
2021/12/08 02:49:46;;;;;;;17.40;2.33;;;;;;;9.95;82.61;100455.47;4931575;29;20083;-73
2021/12/08 02:52:14;;;;;;;23.83;1.70;;;;;;;10.08;82.68;100474.41;4929811;29;20838;-73
2021/12/08 02:54:45;;;;;;;7.27;1.00;;;;;;;10.21;82.71;100487.81;4930718;29;20138;-73
2021/12/08 02:57:14;;;;;;;6.90;1.73;;;;;;;10.24;82.61;100493.94;4932100;29;20051;-77
2021/12/08 02:59:43;;;;;;;8.43;1.87;;;;;;;10.27;82.57;100494.25;4932387;29;20452;-76
2021/12/08 03:02:10;;;;;;;13.17;2.10;;;;;;;10.26;82.63;100489.81;4931283;29;20046;-71
2021/12/08 03:04:38;;;;;;;6.40;2.73;;;;;;;10.29;82.78;100489.25;4924925;29;20107;-65
2021/12/08 03:07:06;;;;;;;8.70;1.20;;;;;;;10.33;82.63;100506.28;4929124;29;20056;-74
2021/12/08 03:09:33;;;;;;;3.80;1.33;;;;;;;10.33;82.82;100478.34;4930074;29;20135;-67
2021/12/08 03:12:02;;;;;;;4.10;1.10;;;;;;;10.64;82.80;100505.09;4930047;29;20142;-67
2021/12/08 03:14:30;;;;;;;8.63;1.33;;;;;;;10.72;82.49;100480.50;4931618;29;20082;-71
2021/12/08 03:17:02;;;;;;;7.27;2.83;;;;;;;10.78;82.52;100487.75;4928044;29;20083;-68
2021/12/08 03:19:30;;;;;;;10.20;1.83;;;;;;;10.85;82.50;100510.66;4923894;29;20064;-71
2021/12/08 03:21:58;;;;;;;11.97;2.10;;;;;;;10.87;82.10;100516.75;4926192;29;20549;-64
2021/12/08 03:32:31;;;;;;;12.10;2.80;;;;;;;10.83;82.00;100521.25;4934565;29;20086;-80
2021/12/08 03:34:58;;;;;;;13.53;2.33;;;;;;;10.90;81.82;100517.03;4933555;29;20411;-77
2021/12/08 03:37:32;;;;;;;6.80;1.90;;;;;;;10.86;81.51;100526.28;4930284;29;20052;-79
2021/12/08 03:40:04;;;;;;;15.13;1.63;;;;;;;10.81;81.30;100545.84;4932770;29;20060;-75
2021/12/08 03:42:35;;;;;;;14.10;1.77;;;;;;;10.70;80.52;100538.59;4935744;29;20134;-74
2021/12/08 03:45:07;;;;;;;6.13;1.10;;;;;;;10.43;80.28;100525.81;4933846;29;20140;-77
2021/12/08 03:47:38;;;;;;;8.70;0.80;;;;;;;10.43;80.42;100550.94;4933952;29;20408;-77
2021/12/08 03:50:07;;;;;;;7.73;1.37;;;;;;;10.28;80.06;100521.03;4934556;29;20566;-79
2021/12/08 03:52:36;;;;;;;2.55;0.80;;;;;;;10.25;80.08;100527.16;4936790;29;20126;-81
2021/12/08 03:55:05;;;;;;;2.57;1.37;;;;;;;10.26;79.75;100531.66;4935080;29;20056;-81
2021/12/08 03:57:32;;;;;;;3.67;1.00;;;;;;;10.24;79.63;100521.84;4935685;29;20500;-80
2021/12/08 04:00:00;;;;;;;7.50;1.30;;;;;;;10.17;79.02;100517.38;4935232;29;20126;-82
2021/12/08 04:02:27;;;;;;;2.30;1.10;;;;;;;10.10;78.59;100513.22;4936631;29;20143;-79
2021/12/08 04:04:54;;;;;;;4.40;1.43;;;;;;;10.05;78.67;100508.47;4932964;29;20471;-78
2021/12/08 04:07:21;;;;;;;3.33;0.87;;;;;;;10.09;78.36;100517.97;4930128;29;20048;-79
2021/12/08 04:09:49;;;;;;;5.63;1.30;;;;;;;10.01;78.42;100510.13;4932387;29;20079;-78
2021/12/08 04:12:20;;;;;;;11.00;1.73;;;;;;;9.93;78.52;100507.91;4933586;29;20083;-72
2021/12/08 04:14:55;;;;;;;12.40;1.60;;;;;;;9.94;78.61;100509.56;4936565;29;20111;-73
2021/12/08 04:17:35;;;;;;;4.67;1.27;;;;;;;9.90;78.77;100514.03;4933650;29;20138;-73
2021/12/08 04:20:18;;;;;;;;;;;;;;;9.85;78.97;100514.03;4935080;29;20078;-73
2021/12/08 04:22:50;;;;;;;8.90;1.07;;;;;;;9.73;78.68;100515.09;4921566;29;20005;-72
2021/12/08 04:25:22;;;;;;;6.93;1.33;;;;;;;9.61;78.81;100511.75;4934152;29;20463;-71
2021/12/08 04:27:53;;;;;;;4.40;1.57;;;;;;;9.53;78.92;100526.22;4929278;29;20087;-73
2021/12/08 04:30:24;;;;;;;4.40;0.93;;;;;;;9.49;79.17;100534.28;4932750;29;20466;-75
2021/12/08 04:32:51;;;;;;;10.10;1.40;;;;;;;9.43;79.56;100529.78;4934724;29;20463;-72
2021/12/08 04:35:20;;;;;;;13.77;1.30;;;;;;;9.55;79.81;100535.16;4928706;29;20609;-73
2021/12/08 04:37:53;;;;;;;7.97;1.35;;;;;;;9.64;80.14;100536.31;4928911;29;20118;-73
2021/12/08 04:43:15;;;;;;;4.63;1.60;;;;;;;9.73;80.44;100534.63;4933351;29;20082;-74
2021/12/08 04:46:54;;;;;;;10.13;1.05;;;;;;;9.81;80.82;100537.97;4931282;29;20078;-74
2021/12/08 05:00:24;;;;;;;7.67;1.10;;;;;;;9.82;81.23;100537.72;4929179;29;20125;-70
2021/12/08 05:06:03;;;;;;;13.43;2.30;;;;;;;9.71;81.53;100544.41;4927352;29;20580;-69
2021/12/08 05:08:41;;;;;;;6.50;0.97;;;;;;;9.68;81.45;100562.50;4933467;29;20147;-69
2021/12/08 05:11:36;;;;;;;6.30;1.47;;;;;;;9.71;81.59;100564.75;4933045;29;20087;-64
2021/12/08 05:14:08;;;;;;;7.47;1.27;;;;;;;9.76;81.35;100565.88;4924087;29;20075;-68
2021/12/08 05:16:38;;;;;;;13.07;1.43;;;;;;;9.80;81.32;100564.22;4931672;29;20107;-63
2021/12/08 05:19:09;;;;;;;8.27;1.10;;;;;;;9.77;81.09;100575.91;4931626;29;20496;-65
2021/12/08 05:21:54;;;;;;;12.40;1.90;;;;;;;9.73;81.51;100575.63;4926280;29;20503;-64
2021/12/08 05:24:39;;;;;;;4.23;1.47;;;;;;;9.77;81.58;100582.31;4922695;29;20082;-65
2021/12/08 05:27:20;;;;;;;8.13;2.50;;;;;;;9.84;81.12;100584.84;4920482;29;20071;-66
2021/12/08 05:29:55;;;;;;;9.70;1.27;;;;;;;9.87;81.30;100589.88;4926924;29;20095;-65
2021/12/08 05:32:22;;;;;;;9.47;1.70;;;;;;;9.79;81.32;100563.38;4933300;29;20054;-66
2021/12/08 05:34:49;;;;;;;4.37;0.80;;;;;;;9.97;81.19;100595.50;4933052;29;20086;-69
2021/12/08 05:37:21;;;;;;;9.23;1.63;;;;;;;9.95;81.20;100594.94;4932099;29;20071;-69
2021/12/08 05:39:48;;;;;;;3.37;1.23;;;;;;;9.98;81.04;100608.31;4928435;29;20048;-70
2021/12/08 05:42:29;;;;;;;4.13;1.50;;;;;;;9.95;81.17;100598.56;4925907;29;20095;-70
2021/12/08 05:44:56;;;;;;;13.70;2.97;;;;;;;9.86;81.52;100611.38;4931156;29;20083;-67
2021/12/08 05:47:28;;;;;;;4.83;1.30;;;;;;;9.74;81.59;100594.03;4928454;29;20047;-67
2021/12/08 05:49:55;;;;;;;13.63;1.73;;;;;;;9.65;82.11;100602.09;4926451;29;20052;-66
2021/12/08 05:52:23;;;;;;;14.57;1.63;;;;;;;9.70;82.25;100607.69;4932997;29;20543;-66
2021/12/08 05:54:50;;;;;;;5.50;0.97;;;;;;;9.78;82.10;100614.69;4927813;29;20105;-66
2021/12/08 05:57:28;;;;;;;4.80;0.97;;;;;;;9.78;82.25;100613.84;4932116;29;20487;-69
2021/12/08 05:59:56;;;;;;;11.27;1.80;;;;;;;9.80;82.27;100606.03;4929937;29;20452;-65
2021/12/08 06:02:32;;;;;;;4.47;1.67;;;;;;;9.78;82.11;100591.53;4926373;29;20086;-67
2021/12/08 06:05:00;;;;;;;17.63;2.17;;;;;;;9.82;81.83;100604.66;4928666;29;20135;-73
2021/12/08 06:07:28;;;;;;;10.40;2.27;;;;;;;9.94;81.73;100613.59;4931545;29;20504;-74
2021/12/08 06:09:59;;;;;;;6.93;1.73;;;;;;;9.94;81.53;100604.41;4930996;29;20558;-73
2021/12/08 06:12:27;;;;;;;7.43;1.43;;;;;;;9.91;81.83;100604.94;4929490;29;20480;-74
2021/12/08 06:14:56;;;;;;;7.37;2.20;;;;;;;9.90;81.42;100603.28;4931766;29;20044;-73
2021/12/08 06:17:27;;;;;;;9.40;1.73;;;;;;;9.90;81.46;100608.88;4927753;29;20138;-73
2021/12/08 06:19:55;;;;;;;7.77;1.73;;;;;;;9.90;81.44;100612.50;4925761;29;20455;-72
2021/12/08 06:22:24;;;;;;;9.90;1.60;;;;;;;9.88;81.16;100616.66;4928488;29;20080;-67
2021/12/08 06:24:52;;;;;;;10.93;1.98;;;;;;;9.84;81.04;100604.38;4926133;29;20496;-74
2021/12/08 06:27:25;;;;;;;10.67;1.80;;;;;;;9.88;81.03;100602.72;4922504;29;20055;-73
2021/12/08 06:29:52;;;;;;;12.97;1.63;;;;;;;9.91;80.82;100616.97;4924002;29;20048;-72
2021/12/08 06:32:19;;;;;;;6.33;1.47;;;;;;;9.91;80.92;100621.69;4925950;29;20099;-72
2021/12/08 06:34:51;;;;;;;7.20;1.13;;;;;;;9.89;80.63;100610.81;4931413;29;20075;-71
2021/12/08 06:37:23;;;;;;;4.47;1.03;;;;;;;9.91;80.62;100619.75;4927910;29;20138;-75
2021/12/08 06:39:59;;;;;;;19.97;2.37;;;;;;;9.95;80.88;100622.84;4927110;29;20071;-73
2021/12/08 06:42:30;;;;;;;4.50;1.07;;;;;;;9.97;80.56;100620.59;4928641;29;20580;-67
2021/12/08 06:44:58;;;;;;;9.87;1.73;;;;;;;10.01;80.51;100632.88;4921720;29;20482;-69
2021/12/08 06:47:28;;;;;;;3.40;1.80;;;;;;;10.01;80.72;100624.50;4929063;29;20464;-67
2021/12/08 06:49:58;;;;;;;12.90;1.50;;;;;;;10.03;80.53;100630.66;4931261;29;20079;-67
2021/12/08 06:52:38;;;;;;;10.67;2.33;;;;;;;10.07;80.56;100642.09;4931632;29;20583;-65
2021/12/08 06:55:14;;;;;;;15.60;1.90;;;;;;;10.06;80.54;100630.13;4931539;29;20059;-68
2021/12/08 06:57:57;;;;;;;10.33;1.73;;;;;;;10.14;80.90;100642.69;4936087;29;20408;-63
2021/12/08 07:00:46;;;;;;;10.40;2.17;;;;;;;10.19;80.80;100635.16;4934044;29;20056;-81
2021/12/08 07:08:24;;;;;;;15.97;1.80;;;;;;;10.32;80.76;100638.56;4932375;29;20139;-69
2021/12/08 07:10:56;;;;;;;7.63;2.93;;;;;;;10.38;80.93;100643.03;4935665;29;20484;-64
2021/12/08 07:13:29;;;;;;;13.80;1.80;;;;;;;10.41;80.81;100656.44;4934767;29;20056;-66
2021/12/08 07:16:21;;;;;;;12.50;0.90;;;;;;;10.38;80.71;100659.78;4924300;29;20409;-65
2021/12/08 07:18:56;;;;;;;4.73;1.17;;;;;;;10.40;80.70;100657.56;4933880;29;20047;-61
2021/12/08 07:21:28;;;;;;;1.90;0.77;;;;;;;10.47;80.74;100666.50;4935169;29;20941;-66
2021/12/08 07:24:03;;;;;;;6.40;1.13;;;;;;;10.32;81.19;100631.00;4930116;29;20052;-59
2021/12/08 07:26:38;;;;;;;17.73;1.93;;;;;;;10.56;80.66;100672.38;4924330;29;20178;-60
2021/12/08 07:29:08;;;;;;;11.40;1.33;;;;;;;10.62;80.74;100688.03;4927150;29;20086;-59
2021/12/08 07:31:47;;;;;;;12.70;1.95;;;;;;;10.73;80.84;100683.28;4923145;29;20139;-59
2021/12/08 07:34:19;;;;;;;11.33;1.87;;;;;;;10.82;80.85;100690.81;4927192;29;20051;-59
2021/12/08 07:36:52;;;;;;;18.70;1.67;;;;;;;10.80;80.71;100695.00;4919975;29;20083;-60
2021/12/08 07:39:27;;;;;;;15.77;2.07;;;;;;;10.80;80.59;100700.59;4934178;29;20479;-59
2021/12/08 07:42:03;;;;;;;7.00;1.73;;;;;;;10.82;80.61;100699.22;4939181;28;20135;-60
2021/12/08 07:44:30;;;;;;;6.43;1.20;;;;;;;10.76;80.41;100685.50;4927682;29;20110;-59
2021/12/08 07:47:02;;;;;;;9.60;1.63;;;;;;;10.85;80.34;100700.63;4925367;29;20134;-58
2021/12/08 07:49:45;;;;;;;7.73;1.77;;;;;;;10.85;80.23;100693.06;4934386;29;20118;-59
2021/12/08 07:52:20;;;;;;;2.60;1.33;;;;;;;10.87;80.18;100689.97;4932903;29;20086;-59
2021/12/08 07:54:48;;;;;;;15.57;2.40;;;;;;;10.94;79.88;100695.28;4928701;29;20064;-59
2021/12/08 07:57:20;;;;;;;6.50;1.43;;;;;;;10.90;79.65;100686.63;4930245;29;20452;-59
2021/12/08 07:59:52;;;;;;;7.93;1.63;;;;;;;10.85;79.50;100675.47;4930832;29;20040;-59
2021/12/08 08:02:19;;;;;;;6.07;1.60;;;;;;;11.02;79.57;100697.53;4930830;29;20083;-59
2021/12/08 08:04:48;;;;;;;10.67;1.23;;;;;;;11.02;79.72;100698.38;4930955;29;20166;-59
2021/12/08 08:07:16;;;;;;;3.20;1.17;;;;;;;11.08;79.46;100702.84;4931296;29;20131;-59
2021/12/08 08:09:46;;;;;;;8.57;1.30;;;;;;;11.08;79.47;100700.06;4934132;29;20048;-58
2021/12/08 08:12:20;;;;;;;7.80;1.10;;;;;;;11.12;79.58;100687.19;4933234;29;20044;-58
2021/12/08 08:14:55;;;;;;;6.43;2.00;;;;;;;11.10;79.39;100695.00;4931024;29;20047;-57
2021/12/08 08:17:32;;;;;;;6.00;1.97;;;;;;;11.11;79.26;100693.91;4928178;29;20550;-57
2021/12/08 08:20:01;;;;;;;7.93;1.23;;;;;;;11.17;79.00;100700.31;4934232;29;20384;-58
2021/12/08 08:22:30;;;;;;;8.40;1.30;;;;;;;11.17;78.99;100716.25;4928059;29;20047;-59
2021/12/08 08:24:59;;;;;;;9.00;1.47;;;;;;;11.16;78.73;100712.63;4932597;29;20087;-58
2021/12/08 08:27:27;;;;;;;6.00;1.10;;;;;;;11.10;79.06;100699.75;4931617;29;20075;-58
2021/12/08 08:29:57;;;;;;;7.07;2.20;;;;;;;11.11;79.06;100705.09;4933755;29;20413;-59
2021/12/08 08:32:32;;;;;;;10.80;1.93;;;;;;;11.23;79.62;100706.75;4932114;29;20086;-60
2021/12/08 08:35:08;;;;;;;7.73;1.97;;;;;;;11.51;80.30;100705.28;4933168;29;20079;-58
2021/12/08 08:37:35;;;;;;;6.53;1.50;;;;;;;11.80;80.60;100719.50;4929156;29;20150;-60
2021/12/08 08:40:10;;;;;;;6.07;1.27;;;;;;;12.14;81.00;100718.84;4927702;29;20807;-58
2021/12/08 08:42:43;;;;;;;7.57;1.70;;;;;;;12.36;81.24;100722.06;4928512;29;20491;-58
2021/12/08 08:45:16;;;;;;;7.93;1.47;;;;;;;12.61;81.55;100728.63;4930604;29;20158;-60
2021/12/08 08:48:07;;;;;;;5.30;1.57;;;;;;;12.91;81.37;100725.63;4930021;29;20138;-59
2021/12/08 08:50:51;;;;;;;12.60;1.87;;;;;;;13.21;81.74;100729.31;4930870;29;20048;-59
2021/12/08 08:53:21;;;;;;;8.37;2.70;;;;;;;13.81;81.90;100721.44;4927837;29;20048;-59
2021/12/08 08:55:56;;;;;;;3.90;1.07;;;;;;;14.32;82.26;100734.84;4929571;29;20076;-59
2021/12/08 08:58:26;;;;;;;6.25;1.42;;;;;;;14.29;81.97;100729.84;4927923;29;20075;-59
2021/12/08 09:01:00;;;;;;;6.65;1.67;;;;;;;14.34;81.96;100738.19;4929188;29;20118;-59
2021/12/08 09:03:34;;;;;;;7.35;1.80;;;;;;;14.68;81.83;100742.81;4930379;29;20048;-58
2021/12/08 09:06:09;;;;;;;8.02;1.33;;;;;;;14.62;82.08;100744.03;4943969;29;20051;-67
2021/12/08 09:08:38;;;;;;;11.40;4.47;;;;;;;14.55;81.58;100743.56;4930961;29;20142;-61
2021/12/08 09:11:13;;;;;;;;;;;;;;;14.37;83.17;100743.22;4933248;29;20110;-59
2021/12/08 09:13:47;;;;;;;19.67;6.03;;;;;;;14.49;81.47;100745.56;4931842;29;19923;-59
2021/12/08 09:16:22;;;;;;;12.48;5.63;;;;;;;15.09;81.54;100743.00;4932263;29;20075;-58
2021/12/08 09:19:01;;;;;;;18.80;5.97;;;;;;;16.00;81.87;100728.44;4931711;29;20052;-59
2021/12/08 09:21:32;;;;;;;12.80;4.35;;;;;;;16.52;80.96;100739.47;4936966;29;20082;-58
2021/12/08 09:24:10;;;;;;;13.00;4.55;;;;;;;16.53;81.18;100733.50;4934187;29;20138;-60
2021/12/08 09:26:42;;;;;;;11.27;3.67;;;;;;;16.40;80.50;100727.88;4934228;29;20683;-61
2021/12/08 09:29:20;;;;;;;17.40;3.70;;;;;;;16.34;80.94;100739.28;4932983;29;20075;-60
2021/12/08 09:31:55;;;;;;;17.08;4.25;;;;;;;16.23;79.50;100722.88;4933749;29;20122;-59
2021/12/08 09:34:27;;;;;;;11.15;2.83;;;;;;;16.50;79.95;100710.72;4930729;29;23058;-60
2021/12/08 09:37:16;;;;;;;10.23;2.65;;;;;;;17.16;79.56;100728.09;4932065;29;20467;-61
2021/12/08 09:39:50;;;;;;;12.52;3.35;;;;;;;17.61;79.46;100740.19;4928752;29;20103;-62
2021/12/08 09:42:35;;;;;;;16.85;2.13;;;;;;;17.95;79.58;100741.56;4932969;29;20102;-59
2021/12/08 09:45:07;;;;;;;15.38;2.13;;;;;;;18.37;78.57;100737.22;4932806;29;20511;-59
2021/12/08 09:47:34;;;;;;;9.10;1.77;;;;;;;18.80;78.32;100736.47;4930133;29;20134;-59
2021/12/08 09:50:06;;;;;;;9.48;1.88;;;;;;;19.02;77.72;100743.97;4931985;29;20170;-59
2021/12/08 09:52:34;;;;;;;6.10;1.88;;;;;;;19.00;77.31;100754.78;4932905;29;20126;-62
2021/12/08 09:55:03;;;;;;;9.90;1.85;;;;;;;18.62;77.19;100748.91;4932244;29;20083;-67
2021/12/08 09:57:30;;;;;;;12.33;2.43;;;;;;;18.34;77.87;100766.13;4927984;29;20127;-62
2021/12/08 09:59:58;;;;;;;11.77;3.00;;;;;;;18.22;78.01;100755.47;4931881;29;20392;-62
2021/12/08 10:02:36;;;;;;;9.68;1.98;;;;;;;18.03;78.32;100763.34;4929286;29;20051;-61
2021/12/08 10:05:12;;;;;;;10.15;2.38;;;;;;;17.64;79.26;100756.50;4932362;29;20115;-62
2021/12/08 10:07:40;;;;;;;15.13;2.58;;;;;;;17.26;78.57;100758.88;4930403;29;20519;-62
2021/12/08 10:10:11;;;;;;;9.25;2.10;;;;;;;16.99;78.58;100751.34;4918457;29;20067;-63
2021/12/08 10:12:38;;;;;;;14.35;4.72;;;;;;;16.56;78.63;100748.94;4931286;29;20048;-62
2021/12/08 10:15:14;;;;;;;16.27;3.15;;;;;;;16.33;79.32;100771.41;4930778;29;20433;-63
2021/12/08 10:17:41;;;;;;;14.13;3.40;;;;;;;15.94;79.05;100769.13;4931856;29;20047;-62
2021/12/08 10:20:32;;;;;;;16.58;3.50;;;;;;;15.69;80.52;100778.91;4929322;29;20071;-63
2021/12/08 10:23:38;;;;;;;16.40;2.78;;;;;;;15.56;80.95;100772.03;4919674;29;20549;-61
2021/12/08 10:26:09;;;;;;;11.23;2.53;;;;;;;15.38;79.79;100773.78;4925363;29;20100;-60
2021/12/08 10:28:40;;;;;;;8.15;2.05;;;;;;;15.07;80.31;100772.56;4931452;29;20048;-62
2021/12/08 10:31:14;;;;;;;11.05;2.28;;;;;;;14.88;80.35;100764.16;4936686;29;20124;-60
2021/12/08 10:39:33;;;;;;;14.70;2.42;;;;;;;13.98;80.59;100814.47;4928438;29;20135;-62
2021/12/08 10:42:17;;;;;;;7.70;2.40;;;;;;;12.96;78.68;100829.31;4930857;29;20715;-62
2021/12/08 10:47:30;;;;;;;5.33;1.50;;;;;;;11.54;79.75;100850.16;4934103;29;20058;-62
2021/12/08 10:55:23;;;;;;;6.23;1.67;;;;;;;10.85;81.31;100852.31;4935998;29;20086;-59
2021/12/08 10:57:56;;;;;;;9.47;2.43;;;;;;;10.86;81.82;100851.19;4935736;29;20103;-62
2021/12/08 11:00:30;;;;;;;18.67;2.83;;;;;;;10.99;82.49;100838.66;4937989;29;20103;-61
2021/12/08 11:03:05;;;;;;;8.40;3.05;;;;;;;12.18;83.70;100831.91;4934947;29;20462;-62
2021/12/08 11:05:43;;;;;;;18.52;6.85;;;;;;;13.78;84.21;100827.84;4927817;29;20052;-62
2021/12/08 11:08:22;;;;;;;20.95;4.43;;;;;;;15.34;83.55;100840.22;4936721;29;20075;-61
2021/12/08 11:11:00;;;;;;;12.35;3.47;;;;;;;16.62;82.13;100814.53;4934102;29;20190;-62
2021/12/08 11:13:37;;;;;;;10.68;3.45;;;;;;;17.72;80.83;100814.19;4936945;29;20456;-62
2021/12/08 11:16:29;;;;;;;16.08;4.10;;;;;;;18.78;79.35;100814.38;4937657;29;20055;-62
2021/12/08 11:19:13;;;;;;;9.63;3.55;;;;;;;19.74;77.16;100815.25;4936060;29;20052;-62
2021/12/08 11:22:05;;;;;;;5.70;2.38;;;;;;;20.56;76.11;100813.16;4943148;29;20403;-62
2021/12/08 11:24:45;;;;;;;13.10;3.90;;;;;;;21.23;74.79;100803.69;4950332;28;20146;-61
2021/12/08 11:27:28;;;;;;;16.23;2.60;;;;;;;21.74;74.30;100829.13;4934683;29;20510;-62
2021/12/08 11:29:55;;;;;;;5.32;2.28;;;;;;;21.27;73.13;100830.22;4935236;29;20134;-61
2021/12/08 11:32:24;;;;;;;8.73;3.20;;;;;;;20.82;74.20;100825.19;4933828;29;20499;-61
2021/12/08 11:34:52;;;;;;;4.05;2.13;;;;;;;21.10;74.38;100819.00;4935336;29;20399;-62
2021/12/08 11:37:22;;;;;;;11.13;2.85;;;;;;;21.53;72.62;100798.75;4935232;29;20174;-61
2021/12/08 11:39:55;;;;;;;8.90;2.03;;;;;;;21.20;72.76;100801.53;4928665;29;20079;-62
2021/12/08 11:42:27;;;;;;;5.97;2.35;;;;;;;20.80;74.05;100804.00;4933825;29;20051;-61
2021/12/08 11:44:57;;;;;;;7.32;1.77;;;;;;;20.49;73.90;100810.00;4935641;29;20087;-61
2021/12/08 11:47:29;;;;;;;7.50;2.47;;;;;;;19.64;75.13;100808.75;4936478;29;20056;-62
2021/12/08 11:49:59;;;;;;;14.30;3.45;;;;;;;19.14;76.38;100803.59;4920455;29;20456;-61
2021/12/08 11:52:29;;;;;;;7.65;2.50;;;;;;;19.63;76.55;100795.75;4936048;29;20068;-62
2021/12/08 11:55:06;;;;;;;8.57;2.17;;;;;;;20.78;75.65;100801.47;4928574;29;20051;-62
2021/12/08 11:57:37;;;;;;;9.43;2.88;;;;;;;20.59;74.25;100787.75;4923595;29;20086;-61
2021/12/08 12:00:20;;;;;;;10.32;3.15;;;;;;;20.30;76.36;100799.06;4936957;29;20103;-61
2021/12/08 12:03:01;;;;;;;10.38;2.97;;;;;;;20.57;76.40;100795.78;4930861;29;20086;-61
2021/12/08 12:05:33;;;;;;;3.67;1.95;;;;;;;21.36;73.81;100798.09;4935369;29;20408;-61
2021/12/08 12:08:02;;;;;;;9.47;2.23;;;;;;;21.98;72.57;100789.44;4936682;29;20071;-62
2021/12/08 12:10:33;;;;;;;12.90;2.33;;;;;;;21.61;72.58;100788.50;4933883;29;20417;-61
2021/12/08 12:13:01;;;;;;;7.70;1.90;;;;;;;20.63;74.50;100798.44;4935597;29;20555;-62
2021/12/08 12:15:29;;;;;;;7.47;1.83;;;;;;;19.88;74.79;100804.53;4936859;29;20530;-60
2021/12/08 12:17:56;;;;;;;7.85;3.17;;;;;;;19.12;75.28;100799.44;4934681;29;20391;-61
2021/12/08 12:20:38;;;;;;;6.93;1.13;;;;;;;18.29;75.21;100797.41;4935565;29;20071;-63
2021/12/08 12:23:32;;;;;;;8.40;2.58;;;;;;;17.51;77.92;100806.22;4926192;29;20431;-62
2021/12/08 12:26:09;;;;;;;6.75;2.45;;;;;;;16.78;77.13;100811.06;4934073;29;20055;-62
2021/12/08 12:29:08;;;;;;;6.32;1.50;;;;;;;16.43;79.11;100798.53;4933492;29;20048;-62
2021/12/08 12:31:49;;;;;;;5.47;2.38;;;;;;;16.18;79.25;100801.91;4934730;29;20051;-62
2021/12/08 12:34:36;;;;;;;12.02;2.20;;;;;;;16.00;78.82;100803.63;4933982;29;20290;-61
2021/12/08 12:37:26;;;;;;;14.07;2.63;;;;;;;16.39;79.12;100807.97;4933191;29;20051;-61
2021/12/08 12:39:56;;;;;;;9.73;3.08;;;;;;;17.32;78.35;100814.03;4930963;29;20083;-61
2021/12/08 12:42:24;;;;;;;;;;;;;;;18.26;78.37;100815.00;4931143;29;20056;-62
2021/12/08 12:45:01;;;;;;;6.25;2.00;;;;;;;18.59;76.59;100801.28;4934291;29;19923;-62
2021/12/08 12:47:30;;;;;;;4.32;1.02;;;;;;;18.33;75.84;100803.22;4934924;29;20079;-62
2021/12/08 12:50:03;;;;;;;7.05;1.73;;;;;;;17.49;77.04;100807.72;4935108;29;20052;-61
2021/12/08 12:52:57;;;;;;;8.18;1.80;;;;;;;16.54;75.47;100801.97;4933317;29;20086;-62
2021/12/08 12:55:29;;;;;;;9.98;1.60;;;;;;;16.31;76.43;100807.53;4920962;29;20146;-62